sensor_id;sensor_type;location;lat;lon;timestamp;pressure;altitude;pressure_sealevel;temperature;humidity
61742;BME280;47650;49.848;9.620;2023-06-04T00:02:05;99863.19;;;12.67;47.90
61742;BME280;47650;49.848;9.620;2023-06-04T00:04:33;99881.44;;;12.62;47.81
61742;BME280;47650;49.848;9.620;2023-06-04T00:06:59;99859.78;;;12.56;47.92
61742;BME280;47650;49.848;9.620;2023-06-04T00:09:41;99846.31;;;12.40;48.71
61742;BME280;47650;49.848;9.620;2023-06-04T00:12:07;99867.66;;;12.48;48.60
61742;BME280;47650;49.848;9.620;2023-06-04T00:14:32;99868.97;;;12.44;49.13
61742;BME280;47650;49.848;9.620;2023-06-04T00:16:58;99866.59;;;12.41;48.64
61742;BME280;47650;49.848;9.620;2023-06-04T00:19:23;99862.56;;;12.37;49.44
61742;BME280;47650;49.848;9.620;2023-06-04T00:21:49;99861.19;;;12.33;49.57
61742;BME280;47650;49.848;9.620;2023-06-04T00:24:17;99863.31;;;12.29;50.23
61742;BME280;47650;49.848;9.620;2023-06-04T00:26:44;99861.09;;;12.25;50.46
61742;BME280;47650;49.848;9.620;2023-06-04T00:29:10;99842.63;;;12.05;50.77
61742;BME280;47650;49.848;9.620;2023-06-04T00:31:41;99688.09;;;11.08;50.54
61742;BME280;47650;49.848;9.620;2023-06-04T00:34:06;99844.91;;;12.00;50.58
61742;BME280;47650;49.848;9.620;2023-06-04T00:36:33;99870.56;;;12.09;51.07
61742;BME280;47650;49.848;9.620;2023-06-04T00:39:00;99869.19;;;12.05;51.27
61742;BME280;47650;49.848;9.620;2023-06-04T00:41:25;99868.97;;;11.98;51.67
61742;BME280;47650;49.848;9.620;2023-06-04T00:43:51;99855.69;;;11.89;51.05
61742;BME280;47650;49.848;9.620;2023-06-04T00:46:25;99829.69;;;11.64;51.24
61742;BME280;47650;49.848;9.620;2023-06-04T00:48:58;99863.56;;;11.80;51.04
61742;BME280;47650;49.848;9.620;2023-06-04T00:51:24;99872.22;;;11.82;50.80
61742;BME280;47650;49.848;9.620;2023-06-04T00:53:52;99799.59;;;11.36;51.14
61742;BME280;47650;49.848;9.620;2023-06-04T00:56:18;99836.69;;;11.56;51.09
61742;BME280;47650;49.848;9.620;2023-06-04T00:58:48;99877.72;;;11.71;51.23
61742;BME280;47650;49.848;9.620;2023-06-04T01:01:28;99860.97;;;11.61;52.24
61742;BME280;47650;49.848;9.620;2023-06-04T01:04:00;99860.56;;;11.56;51.89
61742;BME280;47650;49.848;9.620;2023-06-04T01:06:43;99877.22;;;11.58;51.42
61742;BME280;47650;49.848;9.620;2023-06-04T01:09:10;99873.47;;;11.51;51.96
61742;BME280;47650;49.848;9.620;2023-06-04T01:11:39;99869.41;;;11.46;52.43
61742;BME280;47650;49.848;9.620;2023-06-04T01:14:09;99847.09;;;11.29;52.31
61742;BME280;47650;49.848;9.620;2023-06-04T01:16:49;99911.78;;;11.38;51.84
61742;BME280;47650;49.848;9.620;2023-06-04T01:22:02;99876.84;;;11.33;52.87
61742;BME280;47650;49.848;9.620;2023-06-04T01:24:28;99878.13;;;11.29;52.37
61742;BME280;47650;49.848;9.620;2023-06-04T01:26:59;99874.13;;;11.05;53.20
61742;BME280;47650;49.848;9.620;2023-06-04T01:29:25;99872.69;;;11.21;52.72
61742;BME280;47650;49.848;9.620;2023-06-04T01:31:57;99880.38;;;11.14;52.79
61742;BME280;47650;49.848;9.620;2023-06-04T01:34:26;99877.31;;;11.09;52.86
61742;BME280;47650;49.848;9.620;2023-06-04T01:36:51;99835.22;;;10.77;53.49
61742;BME280;47650;49.848;9.620;2023-06-04T01:39:18;99805.66;;;10.52;53.68
61742;BME280;47650;49.848;9.620;2023-06-04T01:41:46;99875.25;;;10.93;53.98
61742;BME280;47650;49.848;9.620;2023-06-04T01:44:11;99793.34;;;10.41;53.86
61742;BME280;47650;49.848;9.620;2023-06-04T01:46:37;99877.06;;;10.83;53.85
61742;BME280;47650;49.848;9.620;2023-06-04T01:49:07;99865.63;;;10.72;54.02
61742;BME280;47650;49.848;9.620;2023-06-04T01:51:34;99879.88;;;10.71;54.45
61742;BME280;47650;49.848;9.620;2023-06-04T01:53:59;99782.41;;;10.05;54.24
61742;BME280;47650;49.848;9.620;2023-06-04T01:56:25;99871.22;;;10.60;54.41
61742;BME280;47650;49.848;9.620;2023-06-04T01:58:51;99739.88;;;9.68;54.91
61742;BME280;47650;49.848;9.620;2023-06-04T02:01:18;99880.84;;;10.51;54.86
61742;BME280;47650;49.848;9.620;2023-06-04T02:03:44;99851.22;;;10.26;55.32
61742;BME280;47650;49.848;9.620;2023-06-04T02:06:10;99877.06;;;10.44;55.36
61742;BME280;47650;49.848;9.620;2023-06-04T02:08:36;99876.53;;;10.40;56.00
61742;BME280;47650;49.848;9.620;2023-06-04T02:11:03;99869.63;;;10.28;55.64
61742;BME280;47650;49.848;9.620;2023-06-04T02:13:29;99882.34;;;10.34;55.63
61742;BME280;47650;49.848;9.620;2023-06-04T02:15:56;99881.53;;;10.33;56.02
61742;BME280;47650;49.848;9.620;2023-06-04T02:18:26;99873.66;;;10.22;56.05
61742;BME280;47650;49.848;9.620;2023-06-04T02:20:52;99844.59;;;10.01;55.83
61742;BME280;47650;49.848;9.620;2023-06-04T02:23:18;99883.28;;;10.23;55.99
61742;BME280;47650;49.848;9.620;2023-06-04T02:25:45;99889.56;;;10.22;56.46
61742;BME280;47650;49.848;9.620;2023-06-04T02:28:13;99858.69;;;10.02;56.70
61742;BME280;47650;49.848;9.620;2023-06-04T02:30:39;99879.78;;;10.13;56.45
61742;BME280;47650;49.848;9.620;2023-06-04T02:33:05;99836.22;;;9.86;56.39
61742;BME280;47650;49.848;9.620;2023-06-04T02:35:35;99883.69;;;10.09;56.67
61742;BME280;47650;49.848;9.620;2023-06-04T02:38:02;99885.59;;;10.07;56.59
61742;BME280;47650;49.848;9.620;2023-06-04T02:40:27;99877.78;;;10.05;56.54
61742;BME280;47650;49.848;9.620;2023-06-04T02:42:56;99883.94;;;10.06;56.20
61742;BME280;47650;49.848;9.620;2023-06-04T02:45:22;99792.03;;;9.46;55.99
61742;BME280;47650;49.848;9.620;2023-06-04T02:47:52;99889.78;;;10.00;56.31
61742;BME280;47650;49.848;9.620;2023-06-04T02:50:18;99815.16;;;9.44;57.00
61742;BME280;47650;49.848;9.620;2023-06-04T02:52:44;99826.00;;;9.41;56.98
61742;BME280;47650;49.848;9.620;2023-06-04T02:55:10;99897.41;;;9.83;56.82
61742;BME280;47650;49.848;9.620;2023-06-04T02:57:40;99895.28;;;9.77;57.46
61742;BME280;47650;49.848;9.620;2023-06-04T03:00:10;99879.63;;;9.64;57.04
61742;BME280;47650;49.848;9.620;2023-06-04T03:02:41;99890.06;;;9.66;56.47
61742;BME280;47650;49.848;9.620;2023-06-04T03:05:09;99895.75;;;9.61;56.98
61742;BME280;47650;49.848;9.620;2023-06-04T03:07:44;99799.06;;;8.95;56.97
61742;BME280;47650;49.848;9.620;2023-06-04T03:10:12;99840.91;;;9.11;57.47
61742;BME280;47650;49.848;9.620;2023-06-04T03:12:38;99904.63;;;9.50;57.44
61742;BME280;47650;49.848;9.620;2023-06-04T03:15:04;99901.53;;;9.45;57.82
61742;BME280;47650;49.848;9.620;2023-06-04T03:17:31;99873.16;;;9.26;58.36
61742;BME280;47650;49.848;9.620;2023-06-04T03:19:59;99885.84;;;9.32;58.24
61742;BME280;47650;49.848;9.620;2023-06-04T03:22:26;99798.94;;;8.76;58.34
61742;BME280;47650;49.848;9.620;2023-06-04T03:24:51;99892.81;;;9.33;58.30
61742;BME280;47650;49.848;9.620;2023-06-04T03:27:19;99892.00;;;9.33;58.28
61742;BME280;47650;49.848;9.620;2023-06-04T03:29:45;99897.28;;;9.33;58.42
61742;BME280;47650;49.848;9.620;2023-06-04T03:32:11;99833.56;;;8.94;58.52
61742;BME280;47650;49.848;9.620;2023-06-04T03:34:37;99887.47;;;9.23;58.60
61742;BME280;47650;49.848;9.620;2023-06-04T03:37:04;99850.31;;;9.04;58.93
61742;BME280;47650;49.848;9.620;2023-06-04T03:39:36;99884.69;;;9.25;58.62
61742;BME280;47650;49.848;9.620;2023-06-04T03:42:01;99855.81;;;8.91;58.82
61742;BME280;47650;49.848;9.620;2023-06-04T03:44:30;99852.00;;;9.05;58.76
61742;BME280;47650;49.848;9.620;2023-06-04T03:46:56;99892.00;;;9.33;58.61
61742;BME280;47650;49.848;9.620;2023-06-04T03:49:22;99828.97;;;8.96;58.30
61742;BME280;47650;49.848;9.620;2023-06-04T03:51:47;99834.38;;;8.94;57.99
61742;BME280;47650;49.848;9.620;2023-06-04T03:54:15;99900.63;;;9.35;58.45
61742;BME280;47650;49.848;9.620;2023-06-04T03:56:45;99904.00;;;9.37;59.08
61742;BME280;47650;49.848;9.620;2023-06-04T03:59:10;99849.63;;;9.02;58.65
61742;BME280;47650;49.848;9.620;2023-06-04T04:01:38;99880.78;;;9.19;59.18
61742;BME280;47650;49.848;9.620;2023-06-04T04:04:04;99827.09;;;8.87;58.68
61742;BME280;47650;49.848;9.620;2023-06-04T04:06:30;99910.44;;;9.44;58.54
61742;BME280;47650;49.848;9.620;2023-06-04T04:08:55;99824.53;;;8.96;58.27
61742;BME280;47650;49.848;9.620;2023-06-04T04:11:21;99906.03;;;9.54;58.26
61742;BME280;47650;49.848;9.620;2023-06-04T04:13:47;99908.16;;;9.60;58.16
61742;BME280;47650;49.848;9.620;2023-06-04T04:16:14;99800.19;;;9.02;58.28
61742;BME280;47650;49.848;9.620;2023-06-04T04:18:42;99909.50;;;9.76;57.73
61742;BME280;47650;49.848;9.620;2023-06-04T04:21:10;99910.06;;;9.79;57.81
61742;BME280;47650;49.848;9.620;2023-06-04T04:23:41;99860.91;;;9.56;57.34
61742;BME280;47650;49.848;9.620;2023-06-04T04:26:08;99913.88;;;9.96;57.30
61742;BME280;47650;49.848;9.620;2023-06-04T04:28:34;99838.84;;;9.46;57.28
61742;BME280;47650;49.848;9.620;2023-06-04T04:31:00;99911.56;;;10.13;57.36
61742;BME280;47650;49.848;9.620;2023-06-04T04:33:28;99854.75;;;9.86;56.81
61742;BME280;47650;49.848;9.620;2023-06-04T04:36:01;99922.81;;;10.36;56.82
61742;BME280;47650;49.848;9.620;2023-06-04T04:38:29;99920.06;;;10.47;56.95
61742;BME280;47650;49.848;9.620;2023-06-04T04:40:59;99923.44;;;10.59;57.31
61742;BME280;47650;49.848;9.620;2023-06-04T04:43:30;99865.03;;;10.30;56.84
61742;BME280;47650;49.848;9.620;2023-06-04T04:45:56;99903.34;;;10.66;57.05
61742;BME280;47650;49.848;9.620;2023-06-04T04:48:21;99927.63;;;10.91;56.77
61742;BME280;47650;49.848;9.620;2023-06-04T04:50:48;99897.31;;;10.84;57.06
61742;BME280;47650;49.848;9.620;2023-06-04T04:53:13;99924.25;;;11.08;56.89
61742;BME280;47650;49.848;9.620;2023-06-04T04:55:38;99926.47;;;11.23;56.76
61742;BME280;47650;49.848;9.620;2023-06-04T04:58:05;99934.56;;;11.31;56.75
61742;BME280;47650;49.848;9.620;2023-06-04T05:00:30;99915.72;;;11.34;56.60
61742;BME280;47650;49.848;9.620;2023-06-04T05:02:56;99927.41;;;11.51;56.67
61742;BME280;47650;49.848;9.620;2023-06-04T05:05:22;99814.53;;;10.90;56.19
61742;BME280;47650;49.848;9.620;2023-06-04T05:07:47;99901.13;;;11.58;55.95
61742;BME280;47650;49.848;9.620;2023-06-04T05:10:12;99908.50;;;11.64;55.75
61742;BME280;47650;49.848;9.620;2023-06-04T05:12:38;99933.56;;;11.99;55.22
61742;BME280;47650;49.848;9.620;2023-06-04T05:15:04;99917.31;;;12.02;54.65
61742;BME280;47650;49.848;9.620;2023-06-04T05:17:30;99937.91;;;12.28;54.30
61742;BME280;47650;49.848;9.620;2023-06-04T05:20:00;99934.75;;;12.42;53.97
61742;BME280;47650;49.848;9.620;2023-06-04T05:22:29;99910.13;;;12.40;54.56
61742;BME280;47650;49.848;9.620;2023-06-04T05:24:55;99934.69;;;12.70;53.99
61742;BME280;47650;49.848;9.620;2023-06-04T05:27:21;99935.00;;;12.85;54.45
61742;BME280;47650;49.848;9.620;2023-06-04T05:29:48;99937.47;;;12.96;53.94
61742;BME280;47650;49.848;9.620;2023-06-04T05:32:15;99941.78;;;13.15;54.02
61742;BME280;47650;49.848;9.620;2023-06-04T05:34:43;99944.72;;;13.30;54.15
61742;BME280;47650;49.848;9.620;2023-06-04T05:37:09;99944.03;;;13.46;53.18
61742;BME280;47650;49.848;9.620;2023-06-04T05:39:38;99947.47;;;13.64;51.37
61742;BME280;47650;49.848;9.620;2023-06-04T05:42:04;99927.84;;;13.65;51.28
61742;BME280;47650;49.848;9.620;2023-06-04T05:44:31;99942.16;;;13.64;50.50
61742;BME280;47650;49.848;9.620;2023-06-04T05:46:56;99929.69;;;13.99;49.85
61742;BME280;47650;49.848;9.620;2023-06-04T05:49:21;99935.28;;;14.30;49.32
61742;BME280;47650;49.848;9.620;2023-06-04T05:51:49;99927.38;;;14.47;48.54
61742;BME280;47650;49.848;9.620;2023-06-04T05:54:17;99890.81;;;14.31;47.82
61742;BME280;47650;49.848;9.620;2023-06-04T06:01:36;99834.53;;;14.59;47.18
61742;BME280;47650;49.848;9.620;2023-06-04T06:04:01;99643.06;;;13.54;45.71
61742;BME280;47650;49.848;9.620;2023-06-04T06:06:29;99899.59;;;15.15;45.11
61742;BME280;47650;49.848;9.620;2023-06-04T06:08:55;99831.50;;;14.54;44.86
61742;BME280;47650;49.848;9.620;2023-06-04T06:11:20;99852.19;;;14.93;44.63
61742;BME280;47650;49.848;9.620;2023-06-04T06:13:51;99931.47;;;15.33;44.52
61742;BME280;47650;49.848;9.620;2023-06-04T06:16:19;99901.66;;;15.69;43.62
61742;BME280;47650;49.848;9.620;2023-06-04T06:18:44;99934.59;;;15.53;41.95
61742;BME280;47650;49.848;9.620;2023-06-04T06:21:10;99937.25;;;15.86;41.53
61742;BME280;47650;49.848;9.620;2023-06-04T06:23:35;99932.88;;;15.93;41.52
61742;BME280;47650;49.848;9.620;2023-06-04T06:26:01;99937.84;;;16.44;41.15
61742;BME280;47650;49.848;9.620;2023-06-04T06:28:28;99890.84;;;16.10;39.95
61742;BME280;47650;49.848;9.620;2023-06-04T06:30:55;99925.38;;;16.91;40.06
61742;BME280;47650;49.848;9.620;2023-06-04T06:33:20;99795.22;;;16.12;38.08
61742;BME280;47650;49.848;9.620;2023-06-04T06:35:49;99934.44;;;16.82;38.60
61742;BME280;47650;49.848;9.620;2023-06-04T06:38:17;99722.53;;;16.09;37.52
61742;BME280;47650;49.848;9.620;2023-06-04T06:40:46;99942.91;;;17.55;36.67
61742;BME280;47650;49.848;9.620;2023-06-04T06:43:15;99940.25;;;17.55;35.45
61742;BME280;47650;49.848;9.620;2023-06-04T06:45:43;99936.25;;;17.51;35.27
61742;BME280;47650;49.848;9.620;2023-06-04T06:48:09;99937.88;;;17.90;34.95
61742;BME280;47650;49.848;9.620;2023-06-04T06:50:35;99933.44;;;17.97;34.94
61742;BME280;47650;49.848;9.620;2023-06-04T06:53:02;99947.66;;;17.82;34.50
61742;BME280;47650;49.848;9.620;2023-06-04T06:55:29;99860.84;;;17.69;34.25
61742;BME280;47650;49.848;9.620;2023-06-04T06:57:56;99943.13;;;18.28;33.26
61742;BME280;47650;49.848;9.620;2023-06-04T07:00:22;99942.19;;;18.72;32.41
61742;BME280;47650;49.848;9.620;2023-06-04T07:02:47;99943.09;;;18.79;33.47
61742;BME280;47650;49.848;9.620;2023-06-04T07:05:13;99938.13;;;18.97;33.46
61742;BME280;47650;49.848;9.620;2023-06-04T07:07:46;99922.38;;;18.73;33.07
61742;BME280;47650;49.848;9.620;2023-06-04T07:10:13;99940.84;;;19.19;32.92
61742;BME280;47650;49.848;9.620;2023-06-04T07:12:40;99934.53;;;19.33;32.70
61742;BME280;47650;49.848;9.620;2023-06-04T07:15:07;99933.75;;;19.40;32.16
61742;BME280;47650;49.848;9.620;2023-06-04T07:17:38;99932.66;;;19.34;32.00
61742;BME280;47650;49.848;9.620;2023-06-04T07:20:07;99938.28;;;19.39;32.48
61742;BME280;47650;49.848;9.620;2023-06-04T07:22:36;99939.91;;;19.33;32.52
61742;BME280;47650;49.848;9.620;2023-06-04T07:25:01;99941.28;;;19.51;31.81
61742;BME280;47650;49.848;9.620;2023-06-04T07:27:28;99944.41;;;19.83;31.75
61742;BME280;47650;49.848;9.620;2023-06-04T07:29:55;99913.56;;;19.50;32.11
61742;BME280;47650;49.848;9.620;2023-06-04T07:32:22;99942.34;;;19.28;32.13
61742;BME280;47650;49.848;9.620;2023-06-04T07:34:48;99945.06;;;19.85;32.42
61742;BME280;47650;49.848;9.620;2023-06-04T07:37:14;99828.09;;;19.46;31.78
61742;BME280;47650;49.848;9.620;2023-06-04T07:39:43;99872.94;;;19.73;31.34
61742;BME280;47650;49.848;9.620;2023-06-04T07:42:10;99936.44;;;20.44;32.80
61742;BME280;47650;49.848;9.620;2023-06-04T07:44:37;99914.44;;;20.34;30.91
61742;BME280;47650;49.848;9.620;2023-06-04T07:47:03;99935.69;;;20.64;30.72
61742;BME280;47650;49.848;9.620;2023-06-04T07:49:29;99936.34;;;20.79;31.63
61742;BME280;47650;49.848;9.620;2023-06-04T07:51:54;99903.72;;;20.47;31.05
61742;BME280;47650;49.848;9.620;2023-06-04T07:54:21;99935.72;;;20.71;31.77
61742;BME280;47650;49.848;9.620;2023-06-04T07:56:47;99894.28;;;20.72;31.20
61742;BME280;47650;49.848;9.620;2023-06-04T07:59:12;99933.47;;;21.14;30.91
61742;BME280;47650;49.848;9.620;2023-06-04T08:01:38;99837.16;;;20.21;30.53
61742;BME280;47650;49.848;9.620;2023-06-04T08:04:03;99886.63;;;21.02;30.86
61742;BME280;47650;49.848;9.620;2023-06-04T08:06:31;99932.88;;;21.32;29.67
61742;BME280;47650;49.848;9.620;2023-06-04T08:08:56;99866.72;;;21.16;30.58
61742;BME280;47650;49.848;9.620;2023-06-04T08:11:21;99929.97;;;21.74;29.72
61742;BME280;47650;49.848;9.620;2023-06-04T08:13:48;99907.97;;;21.77;30.83
61742;BME280;47650;49.848;9.620;2023-06-04T08:16:14;99885.97;;;21.40;29.89
61742;BME280;47650;49.848;9.620;2023-06-04T08:18:40;99865.66;;;21.17;29.57
61742;BME280;47650;49.848;9.620;2023-06-04T08:21:09;99927.00;;;21.95;29.34
61742;BME280;47650;49.848;9.620;2023-06-04T08:23:36;99854.06;;;21.37;29.22
61742;BME280;47650;49.848;9.620;2023-06-04T08:26:01;99923.94;;;21.72;29.67
61742;BME280;47650;49.848;9.620;2023-06-04T08:28:30;99924.94;;;21.91;29.73
61742;BME280;47650;49.848;9.620;2023-06-04T08:30:55;99810.72;;;20.92;30.64
61742;BME280;47650;49.848;9.620;2023-06-04T08:33:22;99917.38;;;22.13;28.77
61742;BME280;47650;49.848;9.620;2023-06-04T08:35:50;99921.84;;;22.46;29.62
61742;BME280;47650;49.848;9.620;2023-06-04T08:38:18;99913.00;;;22.96;28.76
61742;BME280;47650;49.848;9.620;2023-06-04T08:40:52;99912.66;;;23.42;28.81
61742;BME280;47650;49.848;9.620;2023-06-04T08:43:29;99905.59;;;23.41;27.68
61742;BME280;47650;49.848;9.620;2023-06-04T08:45:58;99916.91;;;23.57;27.11
61742;BME280;47650;49.848;9.620;2023-06-04T08:48:40;99897.72;;;23.58;26.14
61742;BME280;47650;49.848;9.620;2023-06-04T08:51:12;99910.41;;;23.83;27.10
61742;BME280;47650;49.848;9.620;2023-06-04T08:53:38;99899.41;;;23.96;26.11
61742;BME280;47650;49.848;9.620;2023-06-04T08:56:05;99903.50;;;24.36;25.59
61742;BME280;47650;49.848;9.620;2023-06-04T08:58:41;99884.16;;;23.83;25.16
61742;BME280;47650;49.848;9.620;2023-06-04T09:01:07;99910.91;;;24.29;24.96
61742;BME280;47650;49.848;9.620;2023-06-04T09:03:36;99841.13;;;23.94;24.71
61742;BME280;47650;49.848;9.620;2023-06-04T09:06:04;99917.34;;;24.65;25.11
61742;BME280;47650;49.848;9.620;2023-06-04T09:08:31;99910.53;;;25.40;24.31
61742;BME280;47650;49.848;9.620;2023-06-04T09:11:04;99785.81;;;24.74;22.84
61742;BME280;47650;49.848;9.620;2023-06-04T09:13:38;99874.78;;;25.43;22.27
61742;BME280;47650;49.848;9.620;2023-06-04T09:16:06;99912.63;;;25.85;21.18
61742;BME280;47650;49.848;9.620;2023-06-04T09:18:32;99898.81;;;27.13;21.18
61742;BME280;47650;49.848;9.620;2023-06-04T09:21:09;99897.34;;;28.45;20.13
61742;BME280;47650;49.848;9.620;2023-06-04T09:23:47;99884.16;;;30.34;18.18
61742;BME280;47650;49.848;9.620;2023-06-04T09:26:13;99884.56;;;31.15;16.69
61742;BME280;47650;49.848;9.620;2023-06-04T09:28:42;99848.91;;;32.61;14.81
61742;BME280;47650;49.848;9.620;2023-06-04T09:31:09;99874.53;;;35.53;13.38
61742;BME280;47650;49.848;9.620;2023-06-04T09:33:49;99875.84;;;35.70;12.81
61742;BME280;47650;49.848;9.620;2023-06-04T09:36:15;99860.63;;;38.77;10.77
61742;BME280;47650;49.848;9.620;2023-06-04T09:38:41;99864.06;;;38.39;10.26
61742;BME280;47650;49.848;9.620;2023-06-04T09:41:14;99857.84;;;38.86;9.86
61742;BME280;47650;49.848;9.620;2023-06-04T09:43:40;99845.63;;;38.08;9.58
61742;BME280;47650;49.848;9.620;2023-06-04T09:46:18;99847.13;;;38.67;9.42
61742;BME280;47650;49.848;9.620;2023-06-04T09:48:44;99831.22;;;40.51;8.61
61742;BME280;47650;49.848;9.620;2023-06-04T09:53:38;99842.53;;;39.74;8.85
61742;BME280;47650;49.848;9.620;2023-06-04T09:56:04;99829.13;;;40.06;8.46
61742;BME280;47650;49.848;9.620;2023-06-04T09:58:32;99837.91;;;40.50;8.51
61742;BME280;47650;49.848;9.620;2023-06-04T10:01:03;99833.00;;;42.00;8.24
61742;BME280;47650;49.848;9.620;2023-06-04T10:03:33;99834.19;;;41.25;8.25
61742;BME280;47650;49.848;9.620;2023-06-04T10:06:02;99838.13;;;40.03;9.27
61742;BME280;47650;49.848;9.620;2023-06-04T10:08:30;99826.69;;;41.38;8.08
61742;BME280;47650;49.848;9.620;2023-06-04T10:11:02;99838.34;;;38.21;9.51
61742;BME280;47650;49.848;9.620;2023-06-04T10:13:41;99831.97;;;40.73;8.38
61742;BME280;47650;49.848;9.620;2023-06-04T10:16:09;99824.44;;;41.81;7.83
61742;BME280;47650;49.848;9.620;2023-06-04T10:18:37;99830.03;;;41.68;7.77
61742;BME280;47650;49.848;9.620;2023-06-04T10:21:03;99829.03;;;42.54;7.26
61742;BME280;47650;49.848;9.620;2023-06-04T10:23:31;99828.78;;;42.75;7.09
61742;BME280;47650;49.848;9.620;2023-06-04T10:25:57;99824.63;;;44.16;6.04
61742;BME280;47650;49.848;9.620;2023-06-04T10:28:25;99817.91;;;44.01;5.72
61742;BME280;47650;49.848;9.620;2023-06-04T10:30:51;99817.09;;;45.02;5.70
61742;BME280;47650;49.848;9.620;2023-06-04T10:33:20;99821.97;;;45.32;5.43
61742;BME280;47650;49.848;9.620;2023-06-04T10:35:50;99816.31;;;43.33;6.34
61742;BME280;47650;49.848;9.620;2023-06-04T10:38:16;99825.53;;;43.85;6.14
61742;BME280;47650;49.848;9.620;2023-06-04T10:40:47;99817.28;;;44.27;5.88
61742;BME280;47650;49.848;9.620;2023-06-04T10:43:14;99820.28;;;44.38;5.94
61742;BME280;47650;49.848;9.620;2023-06-04T10:45:45;99799.00;;;45.19;5.51
61742;BME280;47650;49.848;9.620;2023-06-04T10:48:12;99819.22;;;45.58;5.52
61742;BME280;47650;49.848;9.620;2023-06-04T10:50:52;99800.03;;;43.86;6.33
61742;BME280;47650;49.848;9.620;2023-06-04T10:53:18;99811.28;;;44.68;6.22
61742;BME280;47650;49.848;9.620;2023-06-04T10:55:46;99807.25;;;43.36;6.10
61742;BME280;47650;49.848;9.620;2023-06-04T10:58:14;99810.44;;;43.70;6.59
61742;BME280;47650;49.848;9.620;2023-06-04T11:00:42;99813.66;;;43.72;6.25
61742;BME280;47650;49.848;9.620;2023-06-04T11:03:10;99811.13;;;42.99;6.81
61742;BME280;47650;49.848;9.620;2023-06-04T11:05:38;99817.72;;;43.74;6.11
61742;BME280;47650;49.848;9.620;2023-06-04T11:08:07;99827.22;;;41.56;7.18
61742;BME280;47650;49.848;9.620;2023-06-04T11:10:37;99813.34;;;45.67;5.44
61742;BME280;47650;49.848;9.620;2023-06-04T11:13:04;99819.09;;;43.65;5.79
61742;BME280;47650;49.848;9.620;2023-06-04T11:15:44;99810.78;;;41.76;7.04
61742;BME280;47650;49.848;9.620;2023-06-04T11:18:14;99770.06;;;43.67;6.28
61742;BME280;47650;49.848;9.620;2023-06-04T11:20:39;99802.50;;;44.69;5.84
61742;BME280;47650;49.848;9.620;2023-06-04T11:23:05;99800.50;;;46.27;4.85
61742;BME280;47650;49.848;9.620;2023-06-04T11:25:31;99790.72;;;45.53;5.57
61742;BME280;47650;49.848;9.620;2023-06-04T11:28:00;99791.69;;;46.25;4.82
61742;BME280;47650;49.848;9.620;2023-06-04T11:30:34;99801.84;;;46.06;5.23
61742;BME280;47650;49.848;9.620;2023-06-04T11:33:04;99788.91;;;46.28;5.44
61742;BME280;47650;49.848;9.620;2023-06-04T11:35:40;99785.81;;;47.89;4.34
61742;BME280;47650;49.848;9.620;2023-06-04T11:38:06;99795.38;;;46.70;5.42
61742;BME280;47650;49.848;9.620;2023-06-04T11:40:32;99784.78;;;46.52;4.77
61742;BME280;47650;49.848;9.620;2023-06-04T11:42:57;99800.25;;;47.84;4.47
61742;BME280;47650;49.848;9.620;2023-06-04T11:45:24;99767.53;;;48.38;4.13
61742;BME280;47650;49.848;9.620;2023-06-04T11:47:55;99797.69;;;47.02;4.50
61742;BME280;47650;49.848;9.620;2023-06-04T11:50:21;99764.09;;;46.68;4.22
61742;BME280;47650;49.848;9.620;2023-06-04T11:52:49;99785.13;;;48.14;3.71
61742;BME280;47650;49.848;9.620;2023-06-04T11:55:15;99771.53;;;48.27;4.31
61742;BME280;47650;49.848;9.620;2023-06-04T11:57:44;99790.47;;;45.92;5.05
61742;BME280;47650;49.848;9.620;2023-06-04T12:00:10;99752.75;;;45.29;5.31
61742;BME280;47650;49.848;9.620;2023-06-04T12:02:37;99770.34;;;48.38;4.06
61742;BME280;47650;49.848;9.620;2023-06-04T12:05:16;99736.25;;;48.62;4.09
61742;BME280;47650;49.848;9.620;2023-06-04T12:07:46;99779.69;;;47.10;4.21
61742;BME280;47650;49.848;9.620;2023-06-04T12:10:20;99776.03;;;46.99;4.89
61742;BME280;47650;49.848;9.620;2023-06-04T12:12:53;99783.75;;;45.39;5.24
61742;BME280;47650;49.848;9.620;2023-06-04T12:15:20;99782.97;;;42.04;6.42
61742;BME280;47650;49.848;9.620;2023-06-04T12:17:53;99777.72;;;43.03;6.79
61742;BME280;47650;49.848;9.620;2023-06-04T12:20:32;99783.72;;;44.66;5.08
61742;BME280;47650;49.848;9.620;2023-06-04T12:22:57;99774.56;;;46.71;4.38
61742;BME280;47650;49.848;9.620;2023-06-04T12:25:26;99776.59;;;46.37;4.87
61742;BME280;47650;49.848;9.620;2023-06-04T12:27:54;99764.16;;;47.90;3.70
61742;BME280;47650;49.848;9.620;2023-06-04T12:30:20;99746.66;;;48.47;3.55
61742;BME280;47650;49.848;9.620;2023-06-04T12:32:45;99760.34;;;48.52;3.55
61742;BME280;47650;49.848;9.620;2023-06-04T12:35:11;99768.81;;;47.60;3.19
61742;BME280;47650;49.848;9.620;2023-06-04T12:37:36;99758.75;;;48.47;3.35
61742;BME280;47650;49.848;9.620;2023-06-04T12:40:03;99762.25;;;49.81;3.14
61742;BME280;47650;49.848;9.620;2023-06-04T12:42:32;99760.38;;;48.95;3.48
61742;BME280;47650;49.848;9.620;2023-06-04T12:44:59;99749.88;;;49.49;3.47
61742;BME280;47650;49.848;9.620;2023-06-04T12:47:25;99764.78;;;46.99;4.52
61742;BME280;47650;49.848;9.620;2023-06-04T12:49:52;99719.25;;;47.23;4.10
61742;BME280;47650;49.848;9.620;2023-06-04T12:52:18;99752.63;;;47.32;4.27
61742;BME280;47650;49.848;9.620;2023-06-04T12:54:43;99753.13;;;48.58;3.07
61742;BME280;47650;49.848;9.620;2023-06-04T12:57:09;99744.22;;;49.49;3.30
61742;BME280;47650;49.848;9.620;2023-06-04T12:59:36;99726.41;;;50.48;2.83
61742;BME280;47650;49.848;9.620;2023-06-04T13:02:03;99749.09;;;49.02;3.31
61742;BME280;47650;49.848;9.620;2023-06-04T13:04:28;99732.19;;;48.59;3.83
61742;BME280;47650;49.848;9.620;2023-06-04T13:06:55;99732.97;;;49.46;3.14
61742;BME280;47650;49.848;9.620;2023-06-04T13:09:29;99729.81;;;48.86;3.74
61742;BME280;47650;49.848;9.620;2023-06-04T13:12:02;99727.22;;;47.88;4.29
61742;BME280;47650;49.848;9.620;2023-06-04T13:14:28;99740.38;;;49.99;3.44
61742;BME280;47650;49.848;9.620;2023-06-04T13:16:58;99720.78;;;51.69;3.19
61742;BME280;47650;49.848;9.620;2023-06-04T13:19:23;99733.72;;;51.32;2.96